createdAt,value
2022-11-30T00:01:22.199Z,10.65
2022-11-30T00:04:24.325Z,10.15
2022-11-30T00:07:26.589Z,9.85
2022-11-30T00:10:28.868Z,9.88
2022-11-30T00:13:31.013Z,10.32
2022-11-30T00:16:33.187Z,10.38
2022-11-30T00:19:35.414Z,10.55
2022-11-30T00:22:37.696Z,9.68
2022-11-30T00:25:39.842Z,10.10
2022-11-30T00:28:43.277Z,9.25
2022-11-30T00:31:45.415Z,8.80
2022-11-30T00:34:47.814Z,9.60
2022-11-30T00:37:50.238Z,9.80
2022-11-30T00:40:52.760Z,10.23
2022-11-30T00:43:54.934Z,9.27
2022-11-30T00:46:57.368Z,9.55
2022-11-30T00:49:59.580Z,9.55
2022-11-30T00:53:01.769Z,9.52
2022-11-30T00:56:04.901Z,9.60
2022-11-30T00:59:07.091Z,9.38
2022-11-30T01:02:09.418Z,9.60
2022-11-30T01:05:11.696Z,9.75
2022-11-30T01:08:14.088Z,9.82
2022-11-30T01:11:21.736Z,8.65
2022-11-30T01:14:24.025Z,9.65
2022-11-30T01:17:26.198Z,9.27
2022-11-30T01:20:28.522Z,8.45
2022-11-30T01:23:30.720Z,8.73
2022-11-30T01:26:32.883Z,8.60
2022-11-30T01:29:35.022Z,8.52
2022-11-30T01:32:37.201Z,9.20
2022-11-30T01:35:39.414Z,8.32
2022-11-30T01:38:44.569Z,8.73
2022-11-30T01:41:46.858Z,9.45
2022-11-30T01:44:56.612Z,9.52
2022-11-30T01:47:58.836Z,9.52
2022-11-30T01:51:01.056Z,8.52
2022-11-30T01:54:08.092Z,9.57
2022-11-30T01:57:38.378Z,9.10
2022-11-30T02:00:44.231Z,8.88
2022-11-30T02:03:59.630Z,9.25
2022-11-30T02:07:04.479Z,9.57
2022-11-30T02:10:07.969Z,8.88
2022-11-30T02:13:16.061Z,9.73
2022-11-30T02:16:18.188Z,10.00
2022-11-30T02:19:42.099Z,9.40
2022-11-30T02:23:05.225Z,8.95
2022-11-30T02:26:22.672Z,10.80
2022-11-30T02:29:50.935Z,9.07
2022-11-30T02:32:55.925Z,9.88
2022-11-30T02:36:00.702Z,9.60
2022-11-30T02:39:04.487Z,10.48
2022-11-30T02:42:12.753Z,11.00
2022-11-30T02:45:15.138Z,9.43
2022-11-30T02:48:24.265Z,9.75
2022-11-30T02:51:28.956Z,10.75
2022-11-30T02:54:31.159Z,10.32
2022-11-30T02:57:33.829Z,11.80
2022-11-30T03:00:36.390Z,10.95
2022-11-30T03:03:38.557Z,9.85
2022-11-30T03:06:40.710Z,11.02
2022-11-30T03:09:42.875Z,10.32
2022-11-30T03:12:45.060Z,8.80
2022-11-30T03:15:48.042Z,10.25
2022-11-30T03:18:50.237Z,10.02
2022-11-30T03:21:52.445Z,10.27
2022-11-30T03:24:54.645Z,10.95
2022-11-30T03:27:56.825Z,10.00
2022-11-30T03:30:59.085Z,10.23
2022-11-30T03:34:01.381Z,11.68
2022-11-30T03:37:03.901Z,11.10
2022-11-30T03:40:06.812Z,9.85
2022-11-30T03:43:08.979Z,10.93
2022-11-30T03:46:11.291Z,10.55
2022-11-30T03:49:13.531Z,11.45
2022-11-30T03:52:15.730Z,10.50
2022-11-30T03:55:17.949Z,10.57
2022-11-30T03:58:20.232Z,11.13
2022-11-30T04:01:23.909Z,10.90
2022-11-30T04:04:26.333Z,11.07
2022-11-30T04:07:28.791Z,11.20
2022-11-30T04:10:31.135Z,10.35
2022-11-30T04:13:35.524Z,10.82
2022-11-30T04:16:38.074Z,11.00
2022-11-30T04:19:40.371Z,10.93
2022-11-30T04:22:42.702Z,11.38
2022-11-30T04:25:45.142Z,9.88
2022-11-30T04:28:47.373Z,10.73
2022-11-30T04:31:49.638Z,10.73
2022-11-30T04:34:51.947Z,11.65
2022-11-30T04:37:54.543Z,11.60
2022-11-30T04:40:57.283Z,11.60
2022-11-30T04:43:59.518Z,10.68
2022-11-30T04:47:01.769Z,11.77
2022-11-30T04:50:05.124Z,11.43
2022-11-30T04:53:07.881Z,11.68
2022-11-30T04:56:11.246Z,11.85
2022-11-30T04:59:13.774Z,12.30
2022-11-30T05:02:16.267Z,13.75
2022-11-30T05:05:18.576Z,12.32
2022-11-30T05:08:20.743Z,13.02
2022-11-30T05:11:22.891Z,11.25
2022-11-30T05:14:25.176Z,13.20
2022-11-30T05:17:27.380Z,12.30
2022-11-30T05:20:29.661Z,12.50
2022-11-30T05:23:32.151Z,12.88
2022-11-30T05:26:36.298Z,12.70
2022-11-30T05:29:38.771Z,12.40
2022-11-30T05:32:41.088Z,13.23
2022-11-30T05:35:43.778Z,12.20
2022-11-30T05:38:46.423Z,13.05
2022-11-30T05:41:48.575Z,11.98
2022-11-30T05:44:51.111Z,13.43
2022-11-30T05:47:53.455Z,12.50
2022-11-30T05:50:56.083Z,11.32
2022-11-30T05:53:58.985Z,11.63
2022-11-30T05:57:01.250Z,11.80
2022-11-30T06:00:05.763Z,12.95
2022-11-30T06:03:13.872Z,12.98
2022-11-30T06:06:16.201Z,12.07
2022-11-30T06:09:18.387Z,11.82
2022-11-30T06:12:20.600Z,11.20
2022-11-30T06:15:22.815Z,11.98
2022-11-30T06:18:25.015Z,12.75
2022-11-30T06:21:27.162Z,12.93
2022-11-30T06:24:29.551Z,12.27
2022-11-30T06:27:32.224Z,12.18
2022-11-30T06:30:34.330Z,11.40
2022-11-30T06:33:36.564Z,10.98
2022-11-30T06:36:38.745Z,13.35
2022-11-30T06:40:05.563Z,12.02
2022-11-30T06:43:03.252Z,12.10
2022-11-30T06:46:06.838Z,12.73
2022-11-30T06:49:09.135Z,11.15
2022-11-30T06:52:11.360Z,12.00
2022-11-30T06:55:13.673Z,11.80
2022-11-30T06:58:16.052Z,12.30
2022-11-30T07:01:18.410Z,12.90
2022-11-30T07:04:20.758Z,11.50
2022-11-30T07:07:23.101Z,12.23
2022-11-30T07:10:25.335Z,12.18
2022-11-30T07:13:27.539Z,11.85
2022-11-30T07:16:29.807Z,12.27
2022-11-30T07:19:35.755Z,12.60
2022-11-30T07:22:37.906Z,12.55
2022-11-30T07:25:58.938Z,12.02
2022-11-30T07:29:01.155Z,11.80
2022-11-30T07:32:03.599Z,12.10
2022-11-30T07:35:05.895Z,12.05
2022-11-30T07:38:09.899Z,11.80
2022-11-30T07:41:13.045Z,11.30
2022-11-30T07:44:15.424Z,12.13
2022-11-30T07:47:17.624Z,11.55
2022-11-30T07:50:19.821Z,12.00
2022-11-30T07:53:22.123Z,12.52
2022-11-30T07:56:25.315Z,12.50
2022-11-30T07:59:27.514Z,11.80
2022-11-30T08:02:29.886Z,12.88
2022-11-30T08:05:32.090Z,12.82
2022-11-30T08:08:39.848Z,12.57
2022-11-30T08:11:42.193Z,13.75
2022-11-30T08:15:18.229Z,13.35
2022-11-30T08:18:07.218Z,13.25
2022-11-30T08:21:11.402Z,12.30
2022-11-30T08:24:16.367Z,13.13
2022-11-30T08:27:18.704Z,14.60
2022-11-30T08:30:20.908Z,13.43
2022-11-30T08:33:23.145Z,13.07
2022-11-30T08:36:26.862Z,14.20
2022-11-30T08:39:31.673Z,13.40
2022-11-30T08:42:33.825Z,12.93
2022-11-30T08:45:36.110Z,13.43
2022-11-30T08:48:38.602Z,14.30
2022-11-30T08:52:08.841Z,13.77
2022-11-30T08:55:03.274Z,13.85
2022-11-30T08:58:05.462Z,14.35
2022-11-30T09:01:19.627Z,13.07
2022-11-30T09:04:21.773Z,13.52
2022-11-30T09:07:23.964Z,13.52
2022-11-30T09:10:26.122Z,13.45
2022-11-30T09:13:28.361Z,13.50
2022-11-30T09:16:31.156Z,12.13
2022-11-30T09:19:33.379Z,13.05
2022-11-30T09:22:35.733Z,14.23
2022-11-30T09:25:37.905Z,13.57
2022-11-30T09:28:41.000Z,12.57
2022-11-30T09:31:43.259Z,13.73
2022-11-30T09:34:46.092Z,14.82
2022-11-30T09:37:48.625Z,12.52
2022-11-30T09:40:58.643Z,14.82
2022-11-30T09:44:23.356Z,12.90
2022-11-30T09:47:37.933Z,13.20
2022-11-30T09:50:44.092Z,13.93
2022-11-30T09:53:53.427Z,13.50
2022-11-30T09:56:56.110Z,13.03
2022-11-30T10:00:05.012Z,12.75
2022-11-30T10:03:14.953Z,13.93
2022-11-30T10:06:26.546Z,14.35
2022-11-30T10:09:40.428Z,13.73
2022-11-30T10:12:50.946Z,14.63
2022-11-30T10:16:20.193Z,12.13
2022-11-30T10:19:56.330Z,11.90
2022-11-30T10:23:35.930Z,14.15
2022-11-30T10:26:40.998Z,14.20
2022-11-30T10:29:44.216Z,14.10
2022-11-30T10:32:51.118Z,13.27
2022-11-30T10:36:05.679Z,12.50
2022-11-30T10:39:34.268Z,11.98
2022-11-30T10:42:44.938Z,11.93
2022-11-30T10:45:49.664Z,11.82
2022-11-30T10:49:13.883Z,12.85
2022-11-30T10:52:23.062Z,11.63
2022-11-30T10:55:28.736Z,11.05
2022-11-30T10:58:38.978Z,11.88
2022-11-30T11:01:42.043Z,11.40
2022-11-30T11:04:44.328Z,10.75
2022-11-30T11:07:52.327Z,12.13
2022-11-30T11:10:54.702Z,10.95
2022-11-30T11:14:24.103Z,11.43
2022-11-30T11:17:26.827Z,11.10
2022-11-30T11:20:34.283Z,11.07
2022-11-30T11:23:44.086Z,11.07
2022-11-30T11:26:53.777Z,9.32
2022-11-30T11:30:14.826Z,10.20
2022-11-30T11:33:22.100Z,10.90
2022-11-30T11:36:33.158Z,9.95
2022-11-30T11:39:35.364Z,10.20
2022-11-30T11:42:42.922Z,9.73
2022-11-30T11:45:55.628Z,10.43
2022-11-30T11:49:03.433Z,9.40
2022-11-30T11:52:13.188Z,9.77
2022-11-30T11:55:21.262Z,9.80
2022-11-30T11:58:33.976Z,9.75
2022-11-30T12:01:40.928Z,9.15
2022-11-30T12:04:53.523Z,9.38
2022-11-30T12:08:18.161Z,9.27
2022-11-30T12:11:30.064Z,9.00
2022-11-30T12:14:35.348Z,8.88
2022-11-30T12:17:46.384Z,9.13
2022-11-30T12:20:56.598Z,7.72
2022-11-30T12:24:48.008Z,9.07
2022-11-30T12:28:07.958Z,7.85
2022-11-30T12:31:18.551Z,8.25
2022-11-30T12:35:03.269Z,8.23
2022-11-30T12:38:49.299Z,7.10
2022-11-30T12:41:56.838Z,7.78
2022-11-30T12:45:17.231Z,6.47
2022-11-30T12:51:47.170Z,6.50
2022-11-30T12:54:57.640Z,6.13
2022-11-30T12:58:21.351Z,6.85
2022-11-30T13:02:00.823Z,6.90
2022-11-30T13:05:26.534Z,5.78
2022-11-30T13:08:53.357Z,6.90
2022-11-30T13:12:06.431Z,6.75
2022-11-30T13:15:39.414Z,6.30
2022-11-30T13:18:42.680Z,6.80
2022-11-30T13:21:57.992Z,7.00
2022-11-30T13:25:12.463Z,6.55
2022-11-30T13:28:27.360Z,6.55
2022-11-30T13:31:39.130Z,6.75
2022-11-30T13:34:41.855Z,5.88
2022-11-30T13:37:44.150Z,6.60
2022-11-30T13:41:04.653Z,6.32
2022-11-30T13:44:25.614Z,6.60
2022-11-30T13:47:36.231Z,7.13
2022-11-30T13:50:39.734Z,6.43
2022-11-30T13:53:42.044Z,6.03
2022-11-30T13:56:48.572Z,6.38
2022-11-30T14:00:34.502Z,6.38
2022-11-30T14:03:38.595Z,6.07
2022-11-30T14:06:46.091Z,5.85
2022-11-30T14:09:57.257Z,5.50
2022-11-30T14:13:09.617Z,6.05
2022-11-30T14:16:25.709Z,5.90
2022-11-30T14:19:29.248Z,6.30
2022-11-30T14:22:31.780Z,6.30
2022-11-30T14:25:35.678Z,5.35
2022-11-30T14:28:58.540Z,6.97
2022-11-30T14:32:13.606Z,6.25
2022-11-30T14:35:20.534Z,5.82
2022-11-30T14:38:30.833Z,6.95
2022-11-30T14:44:40.683Z,5.68
2022-11-30T14:47:47.967Z,5.72
2022-11-30T14:50:53.439Z,6.63
2022-11-30T14:54:30.952Z,5.88
2022-11-30T14:57:46.782Z,5.63
2022-11-30T15:00:50.338Z,6.00
2022-11-30T15:03:55.330Z,5.22
2022-11-30T15:06:58.730Z,6.68
2022-11-30T15:10:11.272Z,5.85
2022-11-30T15:13:15.787Z,6.60
2022-11-30T15:16:22.413Z,6.85
2022-11-30T15:19:30.296Z,6.95
2022-11-30T15:22:35.339Z,7.18
2022-11-30T15:25:42.791Z,7.32
2022-11-30T15:28:54.237Z,6.90
2022-11-30T15:31:58.694Z,7.75
2022-11-30T15:35:01.193Z,7.60
2022-11-30T15:38:09.051Z,6.65
2022-11-30T15:41:22.739Z,6.68
2022-11-30T15:44:46.749Z,7.55
2022-11-30T15:47:49.521Z,8.05
2022-11-30T15:50:51.797Z,8.73
2022-11-30T15:53:54.034Z,7.50
2022-11-30T15:56:58.044Z,8.27
2022-11-30T16:00:12.619Z,8.73
2022-11-30T16:03:14.804Z,8.68
2022-11-30T16:06:20.350Z,9.52
2022-11-30T16:09:32.255Z,9.05
2022-11-30T16:12:34.610Z,8.63
2022-11-30T16:15:37.343Z,8.60
2022-11-30T16:18:39.581Z,9.50
2022-11-30T16:21:42.023Z,9.80
2022-11-30T16:24:44.212Z,9.07
2022-11-30T16:27:47.945Z,10.02
2022-11-30T16:30:51.234Z,9.80
2022-11-30T16:33:53.430Z,9.20
2022-11-30T16:36:55.648Z,7.95
2022-11-30T16:39:57.926Z,9.63
2022-11-30T16:43:00.434Z,9.93
2022-11-30T16:46:02.679Z,9.80
2022-11-30T16:49:04.838Z,9.25
2022-11-30T16:52:09.527Z,10.18
2022-11-30T16:55:22.220Z,9.27
2022-11-30T16:58:24.558Z,10.50
2022-11-30T17:01:48.948Z,10.15
2022-11-30T17:04:51.218Z,10.13
2022-11-30T17:07:54.220Z,10.57
2022-11-30T17:10:56.714Z,11.35
2022-11-30T17:13:59.080Z,10.95
2022-11-30T17:17:01.302Z,10.93
2022-11-30T17:20:03.871Z,11.38
2022-11-30T17:23:07.362Z,11.05
2022-11-30T17:26:10.055Z,10.55
2022-11-30T17:29:12.422Z,10.60
2022-11-30T17:32:14.634Z,10.65
2022-11-30T17:35:18.139Z,11.13
2022-11-30T17:38:20.278Z,10.57
2022-11-30T17:41:23.040Z,11.57
2022-11-30T17:44:25.425Z,11.52
2022-11-30T17:47:27.640Z,10.60
2022-11-30T17:50:29.845Z,12.10
2022-11-30T17:53:32.178Z,11.27
2022-11-30T17:56:35.858Z,10.82
2022-11-30T17:59:38.326Z,10.00
2022-11-30T18:02:40.758Z,11.60
2022-11-30T18:05:42.979Z,12.05
2022-11-30T18:08:45.486Z,11.30
2022-11-30T18:11:47.866Z,11.48
2022-11-30T18:14:51.245Z,12.10
2022-11-30T18:17:55.243Z,11.85
2022-11-30T18:21:06.583Z,11.80
2022-11-30T18:24:10.841Z,11.80
2022-11-30T18:27:13.000Z,12.25
2022-11-30T18:30:15.261Z,11.35
2022-11-30T18:33:17.386Z,11.48
2022-11-30T18:36:19.528Z,12.30
2022-11-30T18:39:21.685Z,12.90
2022-11-30T18:42:23.916Z,11.07
2022-11-30T18:45:26.119Z,10.80
2022-11-30T18:48:28.710Z,11.60
2022-11-30T18:51:31.161Z,12.77
2022-11-30T18:54:33.442Z,13.07
2022-11-30T18:57:36.526Z,13.38
2022-11-30T19:00:38.904Z,13.68
2022-11-30T19:03:41.950Z,13.43
2022-11-30T19:06:44.213Z,13.68
2022-11-30T19:09:46.533Z,14.57
2022-11-30T19:12:49.034Z,13.32
2022-11-30T19:15:51.261Z,12.75
2022-11-30T19:18:54.212Z,12.63
2022-11-30T19:21:58.334Z,11.25
2022-11-30T19:25:00.768Z,12.77
2022-11-30T19:28:03.145Z,14.88
2022-11-30T19:31:13.428Z,13.75
2022-11-30T19:37:53.919Z,12.95
2022-11-30T19:40:56.193Z,12.40
2022-11-30T19:44:03.724Z,12.75
2022-11-30T19:47:06.255Z,12.98
2022-11-30T19:50:08.708Z,14.27
2022-11-30T19:53:10.966Z,12.10
2022-11-30T19:56:16.548Z,13.02
2022-11-30T19:59:18.769Z,12.55
2022-11-30T20:02:20.983Z,13.40
2022-11-30T20:05:23.193Z,12.48
2022-11-30T20:08:25.523Z,12.60
2022-11-30T20:11:27.830Z,13.15
2022-11-30T20:14:30.003Z,12.98
2022-11-30T20:17:32.186Z,14.02
2022-11-30T20:20:34.992Z,12.82
2022-11-30T20:23:37.171Z,13.75
2022-11-30T20:26:43.755Z,12.35
2022-11-30T20:29:45.896Z,12.90
2022-11-30T20:32:48.048Z,12.13
2022-11-30T20:35:50.232Z,11.52
2022-11-30T20:38:52.761Z,13.43
2022-11-30T20:41:54.958Z,12.30
2022-11-30T20:44:57.670Z,13.30
2022-11-30T20:47:59.920Z,12.65
2022-11-30T20:51:29.224Z,13.23
2022-11-30T20:54:31.739Z,11.15
2022-11-30T20:57:33.888Z,10.70
2022-11-30T21:00:36.056Z,12.07
2022-11-30T21:03:38.782Z,12.13
2022-11-30T21:06:45.803Z,11.18
2022-11-30T21:09:48.147Z,12.27
2022-11-30T21:12:50.340Z,12.00
2022-11-30T21:15:52.515Z,11.10
2022-11-30T21:18:54.834Z,12.27
2022-11-30T21:21:58.080Z,10.82
2022-11-30T21:25:00.296Z,12.23
2022-11-30T21:28:02.768Z,11.75
2022-11-30T21:31:05.897Z,11.90
2022-11-30T21:34:08.832Z,12.70
2022-11-30T21:37:10.986Z,12.45
2022-11-30T21:40:13.431Z,11.23
2022-11-30T21:43:15.563Z,11.10
2022-11-30T21:46:19.386Z,10.85
2022-11-30T21:49:21.624Z,11.57
2022-11-30T21:52:23.821Z,12.18
2022-11-30T21:55:26.016Z,11.52
2022-11-30T21:58:31.688Z,12.40
2022-11-30T22:01:35.688Z,12.60
2022-11-30T22:04:38.618Z,11.25
2022-11-30T22:07:40.838Z,11.80
2022-11-30T22:10:43.142Z,12.48
2022-11-30T22:13:45.869Z,12.43
2022-11-30T22:16:48.124Z,13.00
2022-11-30T22:19:50.687Z,11.60
2022-11-30T22:22:53.039Z,12.35
2022-11-30T22:25:55.213Z,13.00
2022-11-30T22:29:11.718Z,12.60
2022-11-30T22:32:13.935Z,12.75
2022-11-30T22:35:16.299Z,11.85
2022-11-30T22:38:18.496Z,12.48
2022-11-30T22:41:20.946Z,11.82
2022-11-30T22:44:24.447Z,12.45
2022-11-30T22:47:26.556Z,11.85
2022-11-30T22:50:28.778Z,12.80
2022-11-30T22:53:31.078Z,13.63
2022-11-30T22:56:44.893Z,11.52
2022-11-30T22:59:47.349Z,13.52
2022-11-30T23:02:49.782Z,11.70
2022-11-30T23:05:52.265Z,13.32
2022-11-30T23:08:54.650Z,12.95
2022-11-30T23:11:56.868Z,13.45
2022-11-30T23:14:59.032Z,12.65
2022-11-30T23:18:01.253Z,13.35
2022-11-30T23:21:12.086Z,13.50
2022-11-30T23:24:20.313Z,13.15
2022-11-30T23:27:22.509Z,14.13
2022-11-30T23:30:24.852Z,13.05
2022-11-30T23:33:27.068Z,12.77
2022-11-30T23:36:29.286Z,13.65
2022-11-30T23:39:31.566Z,13.95
2022-11-30T23:42:33.701Z,13.35
2022-11-30T23:45:35.886Z,12.85
2022-11-30T23:48:38.539Z,13.10
2022-11-30T23:51:41.593Z,13.02
2022-11-30T23:54:43.775Z,13.18
2022-11-30T23:57:46.036Z,13.60
